Pagina principale
METAR-TAF:

METAR-TAF

Aeroporti :

Napoli, Italia

Aeroporto di Napoli-Capodichino

latitudine: 40-51N, longitudine: 014-18E, altezza: 88 m

Osservazione

Il bollettino è stato emesso 20 minuti fa, alle 09:20 UTC
Vento 6 kt da sud, variando fra sud/sud-est e sud-ovest
Temperature 26°C
Umidità 28%
Pressione 1018 hPa
Visibilità 10 km o più
nessuna nube inferiore a 1500 m e nessun cumulonembo

METAR: LIRN 290920Z 18006KT 150V220 CAVOK 26/06 Q1018 NOSIG

Ora: 11:40 (09:40 UTC)

Previsione

Il bollettino è stato emesso 4 ore e 40 minuti fa, alle 05:00 UTC
Previsione valida dal 29 alle 06 UTC al 30 alle 06 UTC
Vento 7 kt da nord-est
Visibilità 10 km o più
nessuna nube inferiore a 1500 m e nessun cumulonembo
Evoluzione graduale
dal 29 alle 11 UTC al 29 alle 13 UTC
Vento 10 kt da ovest/sud-ovest
Evoluzione graduale
dal 29 alle 17 UTC al 29 alle 19 UTC
Vento 5 kt da direzioni variabili

TAF: LIRN 290500Z 2906/3006 04007KT CAVOK BECMG 2911/2913 25010KT BECMG 2917/2919 VRB05KT

Osservazioni e previsioni meteorologiche di più di 4000 aeroporti (messaggi METAR e TAF).

Le stazioni disponibili sono rappresentate dai dischi gialli e rossi sulla carta.

Puntare il mouse per vedere il nome della stazione.

Clicca sopra per visualizzare le osservazioni e previsioni meteorologiche.

Per cambiare la mappa : fare clic sui pulsanti verdi con una croce nera per ingrandire, il pulsante verde con un trattino per diminuire, o sulla freccia verde per le mappe adiacenti.


METAR-TAF: